sensor_id;sensor_type;location;lat;lon;timestamp;temperature;humidity
60027;DHT22;45891;53.006;6.512;2023-04-19T00:00:51;8.00;99.90
60027;DHT22;45891;53.006;6.512;2023-04-19T00:03:17;7.90;99.90
60027;DHT22;45891;53.006;6.512;2023-04-19T00:05:43;7.90;99.90
60027;DHT22;45891;53.006;6.512;2023-04-19T00:08:09;7.80;99.90
60027;DHT22;45891;53.006;6.512;2023-04-19T00:10:35;7.90;99.90
60027;DHT22;45891;53.006;6.512;2023-04-19T00:13:02;7.80;99.90
60027;DHT22;45891;53.006;6.512;2023-04-19T00:15:28;7.80;99.90
60027;DHT22;45891;53.006;6.512;2023-04-19T00:17:54;7.80;99.90
60027;DHT22;45891;53.006;6.512;2023-04-19T00:20:21;7.70;99.90
60027;DHT22;45891;53.006;6.512;2023-04-19T00:22:47;7.70;99.90
60027;DHT22;45891;53.006;6.512;2023-04-19T00:25:13;7.70;99.90
60027;DHT22;45891;53.006;6.512;2023-04-19T00:27:39;7.70;99.90
60027;DHT22;45891;53.006;6.512;2023-04-19T00:30:06;7.70;99.90
60027;DHT22;45891;53.006;6.512;2023-04-19T00:32:32;7.60;99.90
60027;DHT22;45891;53.006;6.512;2023-04-19T00:34:58;7.60;99.90
60027;DHT22;45891;53.006;6.512;2023-04-19T00:37:24;7.60;99.90
60027;DHT22;45891;53.006;6.512;2023-04-19T00:39:50;7.50;99.90
60027;DHT22;45891;53.006;6.512;2023-04-19T00:42:16;7.50;99.90
60027;DHT22;45891;53.006;6.512;2023-04-19T00:44:43;7.50;99.90
60027;DHT22;45891;53.006;6.512;2023-04-19T00:47:09;7.50;99.90
60027;DHT22;45891;53.006;6.512;2023-04-19T00:49:36;7.40;99.90
60027;DHT22;45891;53.006;6.512;2023-04-19T00:52:02;7.40;99.90
60027;DHT22;45891;53.006;6.512;2023-04-19T00:54:29;7.40;99.90
60027;DHT22;45891;53.006;6.512;2023-04-19T00:56:55;7.40;99.90
60027;DHT22;45891;53.006;6.512;2023-04-19T00:59:21;7.40;99.90
60027;DHT22;45891;53.006;6.512;2023-04-19T01:01:49;7.40;99.90
60027;DHT22;45891;53.006;6.512;2023-04-19T01:04:15;7.30;99.90
60027;DHT22;45891;53.006;6.512;2023-04-19T01:06:41;7.30;99.90
60027;DHT22;45891;53.006;6.512;2023-04-19T01:09:07;7.30;99.90
60027;DHT22;45891;53.006;6.512;2023-04-19T01:11:34;7.30;99.90
60027;DHT22;45891;53.006;6.512;2023-04-19T01:14:00;7.30;99.90
60027;DHT22;45891;53.006;6.512;2023-04-19T01:16:26;7.30;99.90
60027;DHT22;45891;53.006;6.512;2023-04-19T01:18:53;7.30;99.90
60027;DHT22;45891;53.006;6.512;2023-04-19T01:21:19;7.30;99.90
60027;DHT22;45891;53.006;6.512;2023-04-19T01:23:47;7.30;99.90
60027;DHT22;45891;53.006;6.512;2023-04-19T01:26:13;7.20;99.90
60027;DHT22;45891;53.006;6.512;2023-04-19T01:28:39;7.30;99.90
60027;DHT22;45891;53.006;6.512;2023-04-19T01:31:05;7.30;99.90
60027;DHT22;45891;53.006;6.512;2023-04-19T01:33:31;7.20;99.90
60027;DHT22;45891;53.006;6.512;2023-04-19T01:35:57;7.20;99.90
60027;DHT22;45891;53.006;6.512;2023-04-19T01:38:23;7.20;99.90
60027;DHT22;45891;53.006;6.512;2023-04-19T01:40:49;7.20;99.90
60027;DHT22;45891;53.006;6.512;2023-04-19T01:43:16;7.20;99.90
60027;DHT22;45891;53.006;6.512;2023-04-19T01:45:43;7.20;99.90
60027;DHT22;45891;53.006;6.512;2023-04-19T01:48:10;7.10;99.90
60027;DHT22;45891;53.006;6.512;2023-04-19T01:50:36;7.10;99.90
60027;DHT22;45891;53.006;6.512;2023-04-19T01:53:02;7.10;99.90
60027;DHT22;45891;53.006;6.512;2023-04-19T01:55:28;7.10;99.90
60027;DHT22;45891;53.006;6.512;2023-04-19T01:57:54;7.10;99.90
60027;DHT22;45891;53.006;6.512;2023-04-19T02:00:21;7.00;99.90
60027;DHT22;45891;53.006;6.512;2023-04-19T02:02:47;7.00;99.90
60027;DHT22;45891;53.006;6.512;2023-04-19T02:05:13;7.00;99.90
60027;DHT22;45891;53.006;6.512;2023-04-19T02:07:39;7.00;99.90
60027;DHT22;45891;53.006;6.512;2023-04-19T02:10:08;7.00;99.90
60027;DHT22;45891;53.006;6.512;2023-04-19T02:12:35;6.90;99.90
60027;DHT22;45891;53.006;6.512;2023-04-19T02:15:02;6.90;99.90
60027;DHT22;45891;53.006;6.512;2023-04-19T02:17:29;6.90;99.90
60027;DHT22;45891;53.006;6.512;2023-04-19T02:19:55;6.90;99.90
60027;DHT22;45891;53.006;6.512;2023-04-19T02:22:21;6.90;99.90
60027;DHT22;45891;53.006;6.512;2023-04-19T02:24:50;6.80;99.90
60027;DHT22;45891;53.006;6.512;2023-04-19T02:27:17;6.80;99.90
60027;DHT22;45891;53.006;6.512;2023-04-19T02:29:43;6.80;99.90
60027;DHT22;45891;53.006;6.512;2023-04-19T02:32:11;6.80;99.90
60027;DHT22;45891;53.006;6.512;2023-04-19T02:34:37;6.80;99.90
60027;DHT22;45891;53.006;6.512;2023-04-19T02:37:03;6.80;99.90
60027;DHT22;45891;53.006;6.512;2023-04-19T02:39:30;6.80;99.90
60027;DHT22;45891;53.006;6.512;2023-04-19T02:41:56;6.80;99.90
60027;DHT22;45891;53.006;6.512;2023-04-19T02:44:22;6.70;99.90
60027;DHT22;45891;53.006;6.512;2023-04-19T02:46:49;6.70;99.90
60027;DHT22;45891;53.006;6.512;2023-04-19T02:49:16;6.70;99.90
60027;DHT22;45891;53.006;6.512;2023-04-19T02:51:42;6.70;99.90
60027;DHT22;45891;53.006;6.512;2023-04-19T02:54:08;6.60;99.90
60027;DHT22;45891;53.006;6.512;2023-04-19T02:56:34;6.60;99.90
60027;DHT22;45891;53.006;6.512;2023-04-19T02:59:01;6.60;99.90
60027;DHT22;45891;53.006;6.512;2023-04-19T03:01:27;6.60;99.90
60027;DHT22;45891;53.006;6.512;2023-04-19T03:03:53;6.60;99.90
60027;DHT22;45891;53.006;6.512;2023-04-19T03:06:19;6.60;99.90
60027;DHT22;45891;53.006;6.512;2023-04-19T03:08:45;6.60;99.90
60027;DHT22;45891;53.006;6.512;2023-04-19T03:11:12;6.50;99.90
60027;DHT22;45891;53.006;6.512;2023-04-19T03:13:38;6.50;99.90
60027;DHT22;45891;53.006;6.512;2023-04-19T03:16:06;6.50;99.90
60027;DHT22;45891;53.006;6.512;2023-04-19T03:18:32;6.40;99.90
60027;DHT22;45891;53.006;6.512;2023-04-19T03:20:58;6.40;99.90
60027;DHT22;45891;53.006;6.512;2023-04-19T03:23:27;6.40;99.90
60027;DHT22;45891;53.006;6.512;2023-04-19T03:25:54;6.40;99.90
60027;DHT22;45891;53.006;6.512;2023-04-19T03:28:20;6.30;99.90
60027;DHT22;45891;53.006;6.512;2023-04-19T03:30:46;6.30;99.90
60027;DHT22;45891;53.006;6.512;2023-04-19T03:33:12;6.30;99.90
60027;DHT22;45891;53.006;6.512;2023-04-19T03:35:38;6.20;99.90
60027;DHT22;45891;53.006;6.512;2023-04-19T03:38:04;6.20;99.90
60027;DHT22;45891;53.006;6.512;2023-04-19T03:40:36;6.20;99.90
60027;DHT22;45891;53.006;6.512;2023-04-19T03:43:02;6.20;99.90
60027;DHT22;45891;53.006;6.512;2023-04-19T03:45:29;6.10;99.90
60027;DHT22;45891;53.006;6.512;2023-04-19T03:47:55;6.00;99.90
60027;DHT22;45891;53.006;6.512;2023-04-19T03:50:21;6.10;99.90
60027;DHT22;45891;53.006;6.512;2023-04-19T03:52:47;6.00;99.90
60027;DHT22;45891;53.006;6.512;2023-04-19T03:55:13;6.00;99.90
60027;DHT22;45891;53.006;6.512;2023-04-19T03:57:40;6.00;99.90
60027;DHT22;45891;53.006;6.512;2023-04-19T04:00:06;5.90;99.90
60027;DHT22;45891;53.006;6.512;2023-04-19T04:02:36;5.90;99.90
60027;DHT22;45891;53.006;6.512;2023-04-19T04:05:02;5.90;99.90
60027;DHT22;45891;53.006;6.512;2023-04-19T04:07:29;5.80;99.90
60027;DHT22;45891;53.006;6.512;2023-04-19T04:09:55;5.80;99.90
60027;DHT22;45891;53.006;6.512;2023-04-19T04:12:21;5.80;99.90
60027;DHT22;45891;53.006;6.512;2023-04-19T04:14:47;5.70;99.90
60027;DHT22;45891;53.006;6.512;2023-04-19T04:17:13;5.70;99.90
60027;DHT22;45891;53.006;6.512;2023-04-19T04:19:39;5.70;99.90
60027;DHT22;45891;53.006;6.512;2023-04-19T04:22:05;5.70;99.90
60027;DHT22;45891;53.006;6.512;2023-04-19T04:24:40;5.70;99.90
60027;DHT22;45891;53.006;6.512;2023-04-19T04:27:10;5.70;99.90
60027;DHT22;45891;53.006;6.512;2023-04-19T04:29:36;5.70;99.90
60027;DHT22;45891;53.006;6.512;2023-04-19T04:32:05;5.60;99.90
60027;DHT22;45891;53.006;6.512;2023-04-19T04:34:33;5.60;99.90
60027;DHT22;45891;53.006;6.512;2023-04-19T04:37:00;5.60;99.90
60027;DHT22;45891;53.006;6.512;2023-04-19T04:39:28;5.70;99.90
60027;DHT22;45891;53.006;6.512;2023-04-19T04:41:54;5.60;99.90
60027;DHT22;45891;53.006;6.512;2023-04-19T04:44:23;5.60;99.90
60027;DHT22;45891;53.006;6.512;2023-04-19T04:46:49;5.60;99.90
60027;DHT22;45891;53.006;6.512;2023-04-19T04:49:15;5.60;99.90
60027;DHT22;45891;53.006;6.512;2023-04-19T04:51:41;5.60;99.90
60027;DHT22;45891;53.006;6.512;2023-04-19T04:54:07;5.60;99.90
60027;DHT22;45891;53.006;6.512;2023-04-19T04:56:33;5.60;99.90
60027;DHT22;45891;53.006;6.512;2023-04-19T04:58:59;5.60;99.90
60027;DHT22;45891;53.006;6.512;2023-04-19T05:01:25;5.60;99.90
60027;DHT22;45891;53.006;6.512;2023-04-19T05:03:51;5.70;99.90
60027;DHT22;45891;53.006;6.512;2023-04-19T05:06:17;5.70;99.90
60027;DHT22;45891;53.006;6.512;2023-04-19T05:08:44;5.80;99.90
60027;DHT22;45891;53.006;6.512;2023-04-19T05:11:10;6.10;99.90
60027;DHT22;45891;53.006;6.512;2023-04-19T05:13:36;6.40;99.90
60027;DHT22;45891;53.006;6.512;2023-04-19T05:16:02;6.70;99.90
60027;DHT22;45891;53.006;6.512;2023-04-19T05:18:28;6.80;99.90
60027;DHT22;45891;53.006;6.512;2023-04-19T05:20:56;6.90;99.90
60027;DHT22;45891;53.006;6.512;2023-04-19T05:23:22;7.10;99.90
60027;DHT22;45891;53.006;6.512;2023-04-19T05:25:48;7.30;99.90
60027;DHT22;45891;53.006;6.512;2023-04-19T05:28:14;7.40;99.90
60027;DHT22;45891;53.006;6.512;2023-04-19T05:30:40;7.60;99.90
60027;DHT22;45891;53.006;6.512;2023-04-19T05:33:06;7.80;99.90
60027;DHT22;45891;53.006;6.512;2023-04-19T05:35:32;7.90;99.90
60027;DHT22;45891;53.006;6.512;2023-04-19T05:37:58;8.00;99.90
60027;DHT22;45891;53.006;6.512;2023-04-19T05:40:24;8.20;99.90
60027;DHT22;45891;53.006;6.512;2023-04-19T05:42:51;8.30;99.90
60027;DHT22;45891;53.006;6.512;2023-04-19T05:45:17;8.40;99.90
60027;DHT22;45891;53.006;6.512;2023-04-19T05:47:46;8.50;99.90
60027;DHT22;45891;53.006;6.512;2023-04-19T05:50:12;8.70;99.90
60027;DHT22;45891;53.006;6.512;2023-04-19T05:52:40;8.80;99.90
60027;DHT22;45891;53.006;6.512;2023-04-19T05:55:06;9.10;99.90
60027;DHT22;45891;53.006;6.512;2023-04-19T05:57:32;9.20;99.90
60027;DHT22;45891;53.006;6.512;2023-04-19T05:59:58;9.30;99.90
60027;DHT22;45891;53.006;6.512;2023-04-19T06:02:24;9.60;99.80
60027;DHT22;45891;53.006;6.512;2023-04-19T06:04:50;9.70;99.30
60027;DHT22;45891;53.006;6.512;2023-04-19T06:07:17;9.70;99.20
60027;DHT22;45891;53.006;6.512;2023-04-19T06:09:43;9.80;98.90
60027;DHT22;45891;53.006;6.512;2023-04-19T06:12:09;9.80;99.00
60027;DHT22;45891;53.006;6.512;2023-04-19T06:14:36;10.00;98.90
60027;DHT22;45891;53.006;6.512;2023-04-19T06:17:02;10.00;97.80
60027;DHT22;45891;53.006;6.512;2023-04-19T06:19:28;10.20;98.50
60027;DHT22;45891;53.006;6.512;2023-04-19T06:21:54;10.20;98.10
60027;DHT22;45891;53.006;6.512;2023-04-19T06:24:21;10.20;97.60
60027;DHT22;45891;53.006;6.512;2023-04-19T06:26:47;10.40;97.90
60027;DHT22;45891;53.006;6.512;2023-04-19T06:29:14;10.50;97.70
60027;DHT22;45891;53.006;6.512;2023-04-19T06:31:40;10.70;97.80
60027;DHT22;45891;53.006;6.512;2023-04-19T06:34:07;11.00;97.80
60027;DHT22;45891;53.006;6.512;2023-04-19T06:36:33;10.90;97.60
60027;DHT22;45891;53.006;6.512;2023-04-19T06:38:59;11.00;97.50
60027;DHT22;45891;53.006;6.512;2023-04-19T06:41:25;11.10;96.80
60027;DHT22;45891;53.006;6.512;2023-04-19T06:43:51;11.30;96.60
60027;DHT22;45891;53.006;6.512;2023-04-19T06:46:18;11.50;96.80
60027;DHT22;45891;53.006;6.512;2023-04-19T06:48:44;11.70;96.60
60027;DHT22;45891;53.006;6.512;2023-04-19T06:51:10;11.90;96.70
60027;DHT22;45891;53.006;6.512;2023-04-19T06:53:36;12.10;96.20
60027;DHT22;45891;53.006;6.512;2023-04-19T06:56:03;12.10;95.80
60027;DHT22;45891;53.006;6.512;2023-04-19T06:58:30;12.10;95.00
60027;DHT22;45891;53.006;6.512;2023-04-19T07:00:57;11.80;95.50
60027;DHT22;45891;53.006;6.512;2023-04-19T07:03:23;11.90;95.20
60027;DHT22;45891;53.006;6.512;2023-04-19T07:05:49;11.80;95.10
60027;DHT22;45891;53.006;6.512;2023-04-19T07:08:17;12.30;95.60
60027;DHT22;45891;53.006;6.512;2023-04-19T07:10:43;12.20;94.90
60027;DHT22;45891;53.006;6.512;2023-04-19T07:13:10;12.40;94.90
60027;DHT22;45891;53.006;6.512;2023-04-19T07:15:37;12.60;94.20
60027;DHT22;45891;53.006;6.512;2023-04-19T07:18:03;12.60;93.40
60027;DHT22;45891;53.006;6.512;2023-04-19T07:20:29;12.50;95.20
60027;DHT22;45891;53.006;6.512;2023-04-19T07:22:58;12.80;94.70
60027;DHT22;45891;53.006;6.512;2023-04-19T07:25:25;12.90;94.10
60027;DHT22;45891;53.006;6.512;2023-04-19T07:27:52;13.20;94.90
60027;DHT22;45891;53.006;6.512;2023-04-19T07:30:19;13.10;93.80
60027;DHT22;45891;53.006;6.512;2023-04-19T07:32:45;13.10;94.10
60027;DHT22;45891;53.006;6.512;2023-04-19T07:35:12;13.40;93.90
60027;DHT22;45891;53.006;6.512;2023-04-19T07:37:38;13.70;93.40
60027;DHT22;45891;53.006;6.512;2023-04-19T07:40:04;13.70;93.10
60027;DHT22;45891;53.006;6.512;2023-04-19T07:42:31;13.30;92.80
60027;DHT22;45891;53.006;6.512;2023-04-19T07:44:57;13.50;93.40
60027;DHT22;45891;53.006;6.512;2023-04-19T07:47:24;13.60;92.60
60027;DHT22;45891;53.006;6.512;2023-04-19T07:49:54;14.10;92.60
60027;DHT22;45891;53.006;6.512;2023-04-19T07:52:20;14.30;92.40
60027;DHT22;45891;53.006;6.512;2023-04-19T07:54:46;14.50;92.20
60027;DHT22;45891;53.006;6.512;2023-04-19T07:57:12;14.40;92.00
60027;DHT22;45891;53.006;6.512;2023-04-19T07:59:38;14.40;92.10
60027;DHT22;45891;53.006;6.512;2023-04-19T08:02:05;14.50;91.70
60027;DHT22;45891;53.006;6.512;2023-04-19T08:04:32;14.80;91.40
60027;DHT22;45891;53.006;6.512;2023-04-19T08:06:58;14.90;91.80
60027;DHT22;45891;53.006;6.512;2023-04-19T08:09:24;15.20;91.10
60027;DHT22;45891;53.006;6.512;2023-04-19T08:11:50;15.60;91.60
60027;DHT22;45891;53.006;6.512;2023-04-19T08:14:18;15.40;90.80
60027;DHT22;45891;53.006;6.512;2023-04-19T08:16:44;15.30;90.90
60027;DHT22;45891;53.006;6.512;2023-04-19T08:19:10;15.30;90.00
60027;DHT22;45891;53.006;6.512;2023-04-19T08:21:36;15.20;90.20
60027;DHT22;45891;53.006;6.512;2023-04-19T08:24:02;15.20;90.00
60027;DHT22;45891;53.006;6.512;2023-04-19T08:26:29;15.40;88.80
60027;DHT22;45891;53.006;6.512;2023-04-19T08:28:55;15.80;89.90
60027;DHT22;45891;53.006;6.512;2023-04-19T08:31:21;15.90;88.70
60027;DHT22;45891;53.006;6.512;2023-04-19T08:33:47;16.30;89.10
60027;DHT22;45891;53.006;6.512;2023-04-19T08:36:13;16.70;88.20
60027;DHT22;45891;53.006;6.512;2023-04-19T08:38:39;16.50;87.20
60027;DHT22;45891;53.006;6.512;2023-04-19T08:41:06;16.90;85.70
60027;DHT22;45891;53.006;6.512;2023-04-19T08:43:34;16.60;85.50
60027;DHT22;45891;53.006;6.512;2023-04-19T08:46:02;16.40;85.40
60027;DHT22;45891;53.006;6.512;2023-04-19T08:48:29;16.70;85.50
60027;DHT22;45891;53.006;6.512;2023-04-19T08:50:58;16.70;85.60
60027;DHT22;45891;53.006;6.512;2023-04-19T08:53:27;17.20;83.20
60027;DHT22;45891;53.006;6.512;2023-04-19T08:55:54;17.90;83.70
60027;DHT22;45891;53.006;6.512;2023-04-19T08:58:24;17.90;81.60
60027;DHT22;45891;53.006;6.512;2023-04-19T09:00:51;17.60;82.80
60027;DHT22;45891;53.006;6.512;2023-04-19T09:03:17;17.90;82.10
60027;DHT22;45891;53.006;6.512;2023-04-19T09:05:43;18.20;82.30
60027;DHT22;45891;53.006;6.512;2023-04-19T09:08:29;18.30;82.60
60027;DHT22;45891;53.006;6.512;2023-04-19T09:11:00;18.30;79.30
60027;DHT22;45891;53.006;6.512;2023-04-19T09:13:27;17.80;79.20
60027;DHT22;45891;53.006;6.512;2023-04-19T09:15:54;17.30;78.20
60027;DHT22;45891;53.006;6.512;2023-04-19T09:18:23;17.40;79.20
60027;DHT22;45891;53.006;6.512;2023-04-19T09:20:50;17.60;79.60
60027;DHT22;45891;53.006;6.512;2023-04-19T09:23:23;18.20;79.40
60027;DHT22;45891;53.006;6.512;2023-04-19T09:25:58;19.00;79.60
60027;DHT22;45891;53.006;6.512;2023-04-19T09:28:30;19.80;78.30
60027;DHT22;45891;53.006;6.512;2023-04-19T09:30:57;19.00;74.40
60027;DHT22;45891;53.006;6.512;2023-04-19T09:33:34;19.30;74.40
60027;DHT22;45891;53.006;6.512;2023-04-19T09:36:01;19.50;74.60
60027;DHT22;45891;53.006;6.512;2023-04-19T09:38:27;19.40;72.60
60027;DHT22;45891;53.006;6.512;2023-04-19T09:41:05;19.10;73.30
60027;DHT22;45891;53.006;6.512;2023-04-19T09:43:32;19.40;72.00
60027;DHT22;45891;53.006;6.512;2023-04-19T09:45:59;19.70;74.00
60027;DHT22;45891;53.006;6.512;2023-04-19T09:48:25;20.10;72.00
60027;DHT22;45891;53.006;6.512;2023-04-19T09:50:53;20.10;70.20
60027;DHT22;45891;53.006;6.512;2023-04-19T09:53:20;19.90;71.50
60027;DHT22;45891;53.006;6.512;2023-04-19T09:55:47;20.40;71.80
60027;DHT22;45891;53.006;6.512;2023-04-19T09:58:17;20.00;69.80
60027;DHT22;45891;53.006;6.512;2023-04-19T10:00:44;20.10;71.20
60027;DHT22;45891;53.006;6.512;2023-04-19T10:03:14;20.90;70.30
60027;DHT22;45891;53.006;6.512;2023-04-19T10:05:42;21.10;68.60
60027;DHT22;45891;53.006;6.512;2023-04-19T10:08:09;20.90;69.80
60027;DHT22;45891;53.006;6.512;2023-04-19T10:10:36;21.00;67.60
60027;DHT22;45891;53.006;6.512;2023-04-19T10:13:05;20.50;66.60
60027;DHT22;45891;53.006;6.512;2023-04-19T10:15:33;20.00;65.70
60027;DHT22;45891;53.006;6.512;2023-04-19T10:18:01;20.30;66.60
60027;DHT22;45891;53.006;6.512;2023-04-19T10:23:22;20.10;63.40
60027;DHT22;45891;53.006;6.512;2023-04-19T10:25:57;20.20;63.30
60027;DHT22;45891;53.006;6.512;2023-04-19T10:28:24;19.90;63.50
60027;DHT22;45891;53.006;6.512;2023-04-19T10:30:54;19.60;64.30
60027;DHT22;45891;53.006;6.512;2023-04-19T10:33:35;20.40;64.90
60027;DHT22;45891;53.006;6.512;2023-04-19T10:36:02;19.80;63.60
60027;DHT22;45891;53.006;6.512;2023-04-19T10:38:43;19.20;63.10
60027;DHT22;45891;53.006;6.512;2023-04-19T10:41:10;19.40;63.20
60027;DHT22;45891;53.006;6.512;2023-04-19T10:43:37;18.70;64.50
60027;DHT22;45891;53.006;6.512;2023-04-19T10:46:08;19.00;65.30
60027;DHT22;45891;53.006;6.512;2023-04-19T10:48:39;19.00;63.80
60027;DHT22;45891;53.006;6.512;2023-04-19T10:51:17;18.80;64.50
60027;DHT22;45891;53.006;6.512;2023-04-19T10:53:50;18.60;64.50
60027;DHT22;45891;53.006;6.512;2023-04-19T10:56:19;18.80;66.70
60027;DHT22;45891;53.006;6.512;2023-04-19T11:04:10;19.10;65.70
60027;DHT22;45891;53.006;6.512;2023-04-19T11:06:38;18.90;64.80
60027;DHT22;45891;53.006;6.512;2023-04-19T11:12:00;18.90;63.50
60027;DHT22;45891;53.006;6.512;2023-04-19T11:14:30;19.00;65.10
60027;DHT22;45891;53.006;6.512;2023-04-19T11:16:57;19.40;64.10
60027;DHT22;45891;53.006;6.512;2023-04-19T11:19:23;19.50;66.40
60027;DHT22;45891;53.006;6.512;2023-04-19T11:21:49;19.10;64.60
60027;DHT22;45891;53.006;6.512;2023-04-19T11:24:15;18.80;65.20
60027;DHT22;45891;53.006;6.512;2023-04-19T11:26:46;18.90;64.80
60027;DHT22;45891;53.006;6.512;2023-04-19T11:29:15;18.70;64.40
60027;DHT22;45891;53.006;6.512;2023-04-19T11:31:45;18.50;65.20
60027;DHT22;45891;53.006;6.512;2023-04-19T11:34:11;18.60;65.30
60027;DHT22;45891;53.006;6.512;2023-04-19T11:36:51;19.10;66.10
60027;DHT22;45891;53.006;6.512;2023-04-19T11:39:17;19.20;64.60
60027;DHT22;45891;53.006;6.512;2023-04-19T11:41:44;18.80;65.30
60027;DHT22;45891;53.006;6.512;2023-04-19T11:44:16;18.50;65.00
60027;DHT22;45891;53.006;6.512;2023-04-19T11:47:02;18.70;64.70
60027;DHT22;45891;53.006;6.512;2023-04-19T11:49:30;19.00;65.50
60027;DHT22;45891;53.006;6.512;2023-04-19T11:51:58;18.80;65.50
60027;DHT22;45891;53.006;6.512;2023-04-19T11:54:25;18.60;65.90
60027;DHT22;45891;53.006;6.512;2023-04-19T11:57:01;18.80;66.70
60027;DHT22;45891;53.006;6.512;2023-04-19T11:59:32;18.60;66.20
60027;DHT22;45891;53.006;6.512;2023-04-19T12:02:08;19.00;67.70
60027;DHT22;45891;53.006;6.512;2023-04-19T12:04:35;19.40;65.40
60027;DHT22;45891;53.006;6.512;2023-04-19T12:07:03;19.10;64.70
60027;DHT22;45891;53.006;6.512;2023-04-19T12:09:33;19.30;64.20
60027;DHT22;45891;53.006;6.512;2023-04-19T12:12:00;19.50;65.30
60027;DHT22;45891;53.006;6.512;2023-04-19T12:14:27;19.70;64.40
60027;DHT22;45891;53.006;6.512;2023-04-19T12:17:20;19.10;64.00
60027;DHT22;45891;53.006;6.512;2023-04-19T12:19:47;19.50;65.20
60027;DHT22;45891;53.006;6.512;2023-04-19T12:22:15;19.60;64.10
60027;DHT22;45891;53.006;6.512;2023-04-19T12:24:41;19.50;66.30
60027;DHT22;45891;53.006;6.512;2023-04-19T12:27:08;19.40;66.00
60027;DHT22;45891;53.006;6.512;2023-04-19T12:29:34;18.80;67.10
60027;DHT22;45891;53.006;6.512;2023-04-19T12:32:01;19.20;67.10
60027;DHT22;45891;53.006;6.512;2023-04-19T12:34:28;18.70;67.20
60027;DHT22;45891;53.006;6.512;2023-04-19T12:36:54;19.00;67.50
60027;DHT22;45891;53.006;6.512;2023-04-19T12:39:21;18.90;67.00
60027;DHT22;45891;53.006;6.512;2023-04-19T12:41:47;18.60;68.00
60027;DHT22;45891;53.006;6.512;2023-04-19T12:44:14;18.90;68.30
60027;DHT22;45891;53.006;6.512;2023-04-19T12:46:41;19.10;67.50
60027;DHT22;45891;53.006;6.512;2023-04-19T12:49:07;19.30;68.10
60027;DHT22;45891;53.006;6.512;2023-04-19T12:51:33;19.50;68.90
60027;DHT22;45891;53.006;6.512;2023-04-19T12:53:59;19.70;67.90
60027;DHT22;45891;53.006;6.512;2023-04-19T12:56:27;19.10;68.40
60027;DHT22;45891;53.006;6.512;2023-04-19T12:58:53;18.90;68.50
60027;DHT22;45891;53.006;6.512;2023-04-19T13:01:19;19.30;69.20
60027;DHT22;45891;53.006;6.512;2023-04-19T13:03:46;19.00;67.50
60027;DHT22;45891;53.006;6.512;2023-04-19T13:06:13;18.90;67.90
60027;DHT22;45891;53.006;6.512;2023-04-19T13:09:05;18.60;67.90
60027;DHT22;45891;53.006;6.512;2023-04-19T13:11:30;18.80;67.90
60027;DHT22;45891;53.006;6.512;2023-04-19T13:13:56;18.90;69.10
60027;DHT22;45891;53.006;6.512;2023-04-19T13:16:22;19.40;68.80
60027;DHT22;45891;53.006;6.512;2023-04-19T13:18:49;19.60;68.80
60027;DHT22;45891;53.006;6.512;2023-04-19T13:21:17;19.20;68.50
60027;DHT22;45891;53.006;6.512;2023-04-19T13:23:43;19.30;68.50
60027;DHT22;45891;53.006;6.512;2023-04-19T13:26:10;19.30;68.60
60027;DHT22;45891;53.006;6.512;2023-04-19T13:28:36;18.60;68.50
60027;DHT22;45891;53.006;6.512;2023-04-19T13:31:05;18.80;67.80
60027;DHT22;45891;53.006;6.512;2023-04-19T13:33:31;18.80;68.80
60027;DHT22;45891;53.006;6.512;2023-04-19T13:35:57;19.20;68.40
60027;DHT22;45891;53.006;6.512;2023-04-19T13:38:23;18.50;69.20
60027;DHT22;45891;53.006;6.512;2023-04-19T13:40:50;18.80;68.90
60027;DHT22;45891;53.006;6.512;2023-04-19T13:43:16;19.00;68.60
60027;DHT22;45891;53.006;6.512;2023-04-19T13:45:42;19.40;68.50
60027;DHT22;45891;53.006;6.512;2023-04-19T13:48:08;19.90;69.50
60027;DHT22;45891;53.006;6.512;2023-04-19T13:50:34;19.60;68.60
60027;DHT22;45891;53.006;6.512;2023-04-19T13:53:01;20.00;69.10
60027;DHT22;45891;53.006;6.512;2023-04-19T13:55:27;19.70;67.70
60027;DHT22;45891;53.006;6.512;2023-04-19T13:57:53;19.20;67.60
60027;DHT22;45891;53.006;6.512;2023-04-19T14:00:19;18.30;68.60
60027;DHT22;45891;53.006;6.512;2023-04-19T14:02:46;18.40;69.90
60027;DHT22;45891;53.006;6.512;2023-04-19T14:05:12;18.70;69.00
60027;DHT22;45891;53.006;6.512;2023-04-19T14:07:39;18.80;67.70
60027;DHT22;45891;53.006;6.512;2023-04-19T14:10:06;18.80;67.70
60027;DHT22;45891;53.006;6.512;2023-04-19T14:12:32;18.80;68.00
60027;DHT22;45891;53.006;6.512;2023-04-19T14:14:58;19.40;69.10
60027;DHT22;45891;53.006;6.512;2023-04-19T14:17:25;19.10;67.90
60027;DHT22;45891;53.006;6.512;2023-04-19T14:19:51;19.00;67.00
60027;DHT22;45891;53.006;6.512;2023-04-19T14:22:17;19.20;68.20
60027;DHT22;45891;53.006;6.512;2023-04-19T14:24:43;19.70;68.20
60027;DHT22;45891;53.006;6.512;2023-04-19T14:27:11;19.60;68.50
60027;DHT22;45891;53.006;6.512;2023-04-19T14:29:37;19.60;67.50
60027;DHT22;45891;53.006;6.512;2023-04-19T14:32:04;18.30;67.60
60027;DHT22;45891;53.006;6.512;2023-04-19T14:34:30;19.00;68.20
60027;DHT22;45891;53.006;6.512;2023-04-19T14:36:57;18.60;68.60
60027;DHT22;45891;53.006;6.512;2023-04-19T14:39:23;18.60;68.00
60027;DHT22;45891;53.006;6.512;2023-04-19T14:41:49;18.30;67.80
60027;DHT22;45891;53.006;6.512;2023-04-19T14:44:16;18.80;69.60
60027;DHT22;45891;53.006;6.512;2023-04-19T14:46:42;18.60;69.10
60027;DHT22;45891;53.006;6.512;2023-04-19T14:49:08;18.00;67.30
60027;DHT22;45891;53.006;6.512;2023-04-19T14:51:34;17.80;68.10
60027;DHT22;45891;53.006;6.512;2023-04-19T14:54:00;17.80;71.60
60027;DHT22;45891;53.006;6.512;2023-04-19T14:56:26;18.00;73.00
60027;DHT22;45891;53.006;6.512;2023-04-19T14:58:52;17.80;73.60
60027;DHT22;45891;53.006;6.512;2023-04-19T15:01:19;17.20;75.40
60027;DHT22;45891;53.006;6.512;2023-04-19T15:03:48;17.30;75.90
60027;DHT22;45891;53.006;6.512;2023-04-19T15:06:14;17.40;75.40
60027;DHT22;45891;53.006;6.512;2023-04-19T15:08:41;16.70;75.10
60027;DHT22;45891;53.006;6.512;2023-04-19T15:11:08;16.80;75.60
60027;DHT22;45891;53.006;6.512;2023-04-19T15:13:34;16.20;76.90
60027;DHT22;45891;53.006;6.512;2023-04-19T15:16:00;16.00;77.80
60027;DHT22;45891;53.006;6.512;2023-04-19T15:18:29;16.70;78.40
60027;DHT22;45891;53.006;6.512;2023-04-19T15:20:55;17.00;76.80
60027;DHT22;45891;53.006;6.512;2023-04-19T15:23:24;17.20;75.90
60027;DHT22;45891;53.006;6.512;2023-04-19T15:25:51;16.30;76.40
60027;DHT22;45891;53.006;6.512;2023-04-19T15:28:17;15.70;78.20
60027;DHT22;45891;53.006;6.512;2023-04-19T15:30:43;16.00;78.40
60027;DHT22;45891;53.006;6.512;2023-04-19T15:33:09;16.00;78.70
60027;DHT22;45891;53.006;6.512;2023-04-19T15:35:35;16.00;78.80
60027;DHT22;45891;53.006;6.512;2023-04-19T15:38:01;16.90;78.20
60027;DHT22;45891;53.006;6.512;2023-04-19T15:40:27;16.70;77.40
60027;DHT22;45891;53.006;6.512;2023-04-19T15:42:54;16.80;77.90
60027;DHT22;45891;53.006;6.512;2023-04-19T15:45:20;16.50;77.40
60027;DHT22;45891;53.006;6.512;2023-04-19T15:47:47;16.80;76.70